Allakaket, Alaska
Current Conditions -  °F | °C
As of 12:53 AM on Monday 20 Oct 2014 (Local Time) from PABT Reporting Station
Overcast Overcast  
Wind Chill: -5°   Ceiling: 5000
Heat Index: -1°   Visibility: 10mi
Dew Point: -8°   Wind: 10mph
Humidity: 57%   Direction: 60°ENE
Pressure: 29.39"   Gusts: 22mph
Location:  66.57°N, 152.65°W
Report Text: PABT 200853Z 06009G19KT 10SM OVC050 M01/M08 A2939 RMK AO2 SLP967 T10061083 400001056 55000
Loading
Personal Weather Stations






























Interactive Weather Map
Tropical Storm Tracking
New forecast layout! Learn more

10-Day Weather Forecast

Advertisements
Track Severe Weather on mobile